Time;durP1;ratioP1;P1;durP2;ratioP2;P2;SDS_P1;SDS_P2;PMS_P1;PMS_P2;Temp;Humidity;BMP_temperature;BMP_pressure;BME280_temperature;BME280_humidity;BME280_pressure;Samples;Min_cycle;Max_cycle;Signal;HPM_P1;HPM_P2
2022/09/22 00:00:59;;;;;;;3.40;1.30;;;7.20;99.90;;;;;;5003281;28;20061;-68
2022/09/22 00:03:28;;;;;;;2.85;1.10;;;7.20;99.90;;;;;;4999936;28;20037;-69
2022/09/22 00:06:08;;;;;;;1.35;0.90;;;7.20;99.90;;;;;;5003561;28;20097;-69
2022/09/22 00:08:41;;;;;;;5.50;1.35;;;7.10;99.90;;;;;;4988713;28;20046;-69
2022/09/22 00:11:15;;;;;;;2.75;0.93;;;7.10;99.90;;;;;;5004162;28;20888;-69
2022/09/22 00:13:53;;;;;;;1.95;1.08;;;7.10;99.90;;;;;;4999013;28;20052;-68
2022/09/22 00:16:24;;;;;;;1.70;0.95;;;7.00;99.90;;;;;;5001455;28;20045;-69
2022/09/22 00:18:50;;;;;;;1.77;0.77;;;7.10;99.90;;;;;;5012647;28;20042;-69
2022/09/22 00:21:18;;;;;;;2.15;0.93;;;7.00;99.90;;;;;;5004644;28;20408;-69
2022/09/22 00:23:46;;;;;;;2.50;0.80;;;7.00;99.90;;;;;;5017553;28;20069;-69
2022/09/22 00:26:15;;;;;;;2.05;0.90;;;7.00;99.90;;;;;;5012630;28;20054;-69
2022/09/22 00:28:41;;;;;;;2.25;0.85;;;7.00;99.90;;;;;;4999722;28;20060;-68
2022/09/22 00:31:16;;;;;;;4.95;1.00;;;7.00;99.90;;;;;;5004885;28;20047;-68
2022/09/22 00:33:45;;;;;;;1.98;0.77;;;6.90;99.90;;;;;;5006811;28;20038;-68
2022/09/22 00:36:12;;;;;;;3.08;0.80;;;6.90;99.90;;;;;;5007642;28;20042;-68
2022/09/22 00:38:38;;;;;;;3.20;1.13;;;6.90;99.90;;;;;;5000782;28;20034;-68
2022/09/22 00:41:07;;;;;;;0.90;0.70;;;6.90;99.90;;;;;;5003437;28;20057;-68
2022/09/22 00:43:35;;;;;;;1.17;0.70;;;6.80;99.90;;;;;;5001021;28;20565;-68
2022/09/22 00:46:09;;;;;;;1.33;0.60;;;6.80;99.90;;;;;;5002809;28;20045;-68
2022/09/22 00:48:38;;;;;;;3.53;1.08;;;6.80;99.90;;;;;;5001719;28;20046;-68
2022/09/22 00:51:08;;;;;;;2.35;0.73;;;6.80;99.90;;;;;;5004015;28;20057;-69
2022/09/22 00:53:34;;;;;;;1.45;0.80;;;6.80;99.90;;;;;;5002424;28;20073;-69
2022/09/22 00:56:09;;;;;;;1.75;0.73;;;6.70;99.90;;;;;;4998405;28;20145;-69
2022/09/22 00:58:40;;;;;;;2.30;1.10;;;6.70;99.90;;;;;;5001520;28;20045;-68
2022/09/22 01:01:08;;;;;;;2.15;1.20;;;6.70;99.90;;;;;;5004763;28;20085;-68
2022/09/22 01:03:37;;;;;;;3.83;1.05;;;6.70;99.90;;;;;;5004555;28;20101;-69
2022/09/22 01:06:08;;;;;;;2.15;0.80;;;6.70;99.90;;;;;;5001688;28;20315;-69
2022/09/22 01:08:36;;;;;;;2.28;1.40;;;6.70;99.90;;;;;;5002136;28;20050;-70
2022/09/22 01:11:02;;;;;;;2.45;1.02;;;6.60;99.90;;;;;;5006399;28;20044;-67
2022/09/22 01:13:47;;;;;;;2.97;1.25;;;6.60;99.90;;;;;;5002169;28;20037;-68
2022/09/22 01:16:21;;;;;;;1.23;1.00;;;6.60;99.90;;;;;;5001162;28;20042;-69
2022/09/22 01:19:08;;;;;;;4.55;1.38;;;6.60;99.90;;;;;;5000354;28;20041;-69
2022/09/22 01:21:50;;;;;;;4.35;1.58;;;6.50;99.90;;;;;;4998055;28;20050;-69
2022/09/22 01:24:19;;;;;;;2.55;1.17;;;6.50;99.90;;;;;;5002050;28;20034;-69
2022/09/22 01:27:02;;;;;;;5.03;1.08;;;6.50;99.90;;;;;;4998108;28;20074;-67
2022/09/22 01:30:14;;;;;;;2.72;1.33;;;6.50;99.90;;;;;;5001782;28;20053;-67
2022/09/22 01:33:21;;;;;;;3.42;1.40;;;6.50;99.90;;;;;;4999276;28;20044;-67
2022/09/22 01:36:08;;;;;;;2.40;1.23;;;6.40;99.90;;;;;;4929459;28;20059;-67
2022/09/22 01:38:59;;;;;;;3.40;1.63;;;6.40;99.90;;;;;;5005068;28;20089;-67
2022/09/22 01:41:58;;;;;;;2.25;1.40;;;6.40;99.90;;;;;;5016670;28;20058;-67
2022/09/22 01:44:31;;;;;;;2.75;1.63;;;6.40;99.90;;;;;;5009567;28;20042;-68
2022/09/22 01:47:06;;;;;;;1.83;1.30;;;6.40;99.90;;;;;;5002637;28;20084;-68
2022/09/22 01:49:35;;;;;;;2.72;1.70;;;6.30;99.90;;;;;;5007701;28;20050;-68
2022/09/22 01:52:22;;;;;;;3.78;1.73;;;6.30;99.90;;;;;;5011030;28;21042;-68
2022/09/22 01:55:02;;;;;;;2.78;1.42;;;6.30;99.90;;;;;;5006639;28;20489;-68
2022/09/22 01:57:50;;;;;;;2.78;1.40;;;6.30;99.90;;;;;;5001778;28;20038;-68
2022/09/22 02:00:16;;;;;;;3.47;1.77;;;6.30;99.90;;;;;;5004926;28;20160;-68
2022/09/22 02:02:50;;;;;;;3.03;1.70;;;6.30;99.90;;;;;;5001380;28;20045;-68
2022/09/22 02:05:24;;;;;;;2.58;1.50;;;6.20;99.90;;;;;;5011258;28;20062;-68
2022/09/22 02:07:52;;;;;;;3.38;1.63;;;6.20;99.90;;;;;;5011279;28;20046;-68
2022/09/22 02:10:23;;;;;;;4.38;2.17;;;6.20;99.90;;;;;;5006159;28;20053;-68
2022/09/22 02:12:49;;;;;;;2.35;1.92;;;6.20;99.90;;;;;;5018632;28;20144;-68
2022/09/22 02:18:06;;;;;;;3.80;2.10;;;6.10;99.90;;;;;;5008764;28;20052;-68
2022/09/22 02:20:33;;;;;;;2.78;1.70;;;6.10;99.90;;;;;;5009428;28;20079;-68
2022/09/22 02:22:58;;;;;;;4.13;2.08;;;6.10;99.90;;;;;;5009822;28;20374;-68
2022/09/22 02:25:24;;;;;;;5.28;2.30;;;6.00;99.90;;;;;;5008680;28;20081;-69
2022/09/22 02:27:53;;;;;;;4.75;2.03;;;6.10;99.90;;;;;;5004833;28;20517;-68
2022/09/22 02:30:21;;;;;;;3.28;1.75;;;6.00;99.90;;;;;;5002839;28;20097;-68
2022/09/22 02:32:49;;;;;;;5.45;2.15;;;6.00;99.90;;;;;;4994038;28;20397;-68
2022/09/22 02:35:16;;;;;;;3.42;2.03;;;6.00;99.90;;;;;;5006873;28;20474;-68
2022/09/22 02:38:15;;;;;;;3.97;2.28;;;5.90;99.90;;;;;;5007746;28;20402;-69
2022/09/22 02:41:05;;;;;;;4.75;2.30;;;5.90;99.90;;;;;;5005669;28;20044;-68
2022/09/22 02:43:47;;;;;;;5.15;2.70;;;5.90;99.90;;;;;;5008032;28;20439;-68
2022/09/22 02:46:41;;;;;;;4.88;2.10;;;5.90;99.90;;;;;;5006064;28;20046;-69
2022/09/22 02:49:12;;;;;;;5.22;2.60;;;5.80;99.90;;;;;;5005321;28;20049;-68
2022/09/22 02:51:38;;;;;;;2.95;1.80;;;5.80;99.90;;;;;;5006145;28;20053;-70
2022/09/22 02:54:05;;;;;;;3.90;2.33;;;5.90;99.90;;;;;;5018852;28;20078;-67
2022/09/22 02:56:31;;;;;;;3.38;1.90;;;5.80;99.90;;;;;;5004990;28;20100;-67
2022/09/22 02:58:57;;;;;;;6.85;1.80;;;5.80;99.90;;;;;;5000603;28;20496;-68
2022/09/22 03:01:22;;;;;;;4.00;2.00;;;5.80;99.90;;;;;;4988925;28;20132;-68
2022/09/22 03:03:48;;;;;;;3.55;2.15;;;5.80;99.90;;;;;;5005073;28;20034;-68
2022/09/22 03:06:14;;;;;;;3.20;2.17;;;5.80;99.90;;;;;;5004826;28;20042;-68
2022/09/22 03:08:40;;;;;;;3.05;1.95;;;5.70;99.90;;;;;;5005134;28;20049;-68
2022/09/22 03:11:06;;;;;;;3.22;1.88;;;5.70;99.90;;;;;;5004303;28;20096;-68
2022/09/22 03:13:31;;;;;;;4.00;2.35;;;5.70;99.90;;;;;;5001851;28;20038;-67
2022/09/22 03:15:57;;;;;;;2.85;1.80;;;5.70;99.90;;;;;;5006911;28;20440;-68
2022/09/22 03:18:23;;;;;;;2.75;1.90;;;5.70;99.90;;;;;;5004468;28;20092;-68
2022/09/22 03:20:48;;;;;;;3.42;1.88;;;5.60;99.90;;;;;;5001079;28;20046;-69
2022/09/22 03:23:14;;;;;;;3.88;2.45;;;5.60;99.90;;;;;;5003513;28;20549;-69
2022/09/22 03:25:40;;;;;;;3.10;1.70;;;5.60;99.90;;;;;;4993594;28;20493;-69
2022/09/22 03:28:05;;;;;;;2.40;1.90;;;5.60;99.90;;;;;;5002784;28;20049;-68
2022/09/22 03:30:31;;;;;;;2.33;1.50;;;5.60;99.90;;;;;;5004903;28;20088;-68
2022/09/22 03:32:57;;;;;;;2.97;1.95;;;5.60;99.90;;;;;;5002380;28;20498;-68
2022/09/22 03:35:23;;;;;;;3.97;1.85;;;5.50;99.90;;;;;;5002757;28;20054;-68
2022/09/22 03:37:48;;;;;;;3.50;1.73;;;5.50;99.90;;;;;;5005263;28;20046;-68
2022/09/22 03:40:14;;;;;;;2.65;1.48;;;5.50;99.90;;;;;;5011632;28;20052;-68
2022/09/22 03:42:40;;;;;;;4.07;1.42;;;5.50;99.90;;;;;;5003912;28;20050;-68
2022/09/22 03:45:06;;;;;;;3.97;1.45;;;5.50;99.90;;;;;;4998877;28;20038;-68
2022/09/22 03:47:31;;;;;;;2.80;1.55;;;5.50;99.90;;;;;;5002491;28;20096;-68
2022/09/22 03:49:57;;;;;;;5.10;1.80;;;5.50;99.90;;;;;;5004435;28;20484;-68
2022/09/22 03:52:23;;;;;;;3.10;1.67;;;5.50;99.90;;;;;;5005979;28;20070;-68
2022/09/22 03:54:50;;;;;;;2.20;1.30;;;5.50;99.90;;;;;;5003540;28;20033;-68
2022/09/22 03:57:16;;;;;;;1.90;1.08;;;5.50;99.90;;;;;;5005697;28;20050;-68
2022/09/22 03:59:42;;;;;;;2.92;1.10;;;5.50;99.90;;;;;;5000939;28;20041;-68
2022/09/22 04:02:08;;;;;;;3.47;1.00;;;5.40;99.90;;;;;;4983209;28;20072;-68
2022/09/22 04:04:33;;;;;;;3.22;1.58;;;5.40;99.90;;;;;;5001003;28;20039;-68
2022/09/22 04:06:59;;;;;;;4.85;1.80;;;5.40;99.90;;;;;;5003892;28;20442;-68
2022/09/22 04:09:25;;;;;;;4.22;2.10;;;5.40;99.90;;;;;;5002318;28;20041;-68
2022/09/22 04:11:50;;;;;;;2.92;1.60;;;5.40;99.90;;;;;;5001969;28;20042;-68
2022/09/22 04:14:16;;;;;;;7.57;1.60;;;5.40;99.90;;;;;;5003560;28;20057;-68
2022/09/22 04:16:42;;;;;;;4.38;2.47;;;5.40;99.90;;;;;;5003453;28;20604;-69
2022/09/22 04:19:12;;;;;;;2.78;1.65;;;5.30;99.90;;;;;;5008101;28;20181;-69
2022/09/22 04:21:38;;;;;;;4.60;1.88;;;5.30;99.90;;;;;;5007680;28;20038;-70
2022/09/22 04:24:10;;;;;;;3.25;2.15;;;5.40;99.90;;;;;;5003985;28;20040;-70
2022/09/22 04:26:39;;;;;;;7.20;2.00;;;5.30;99.90;;;;;;5005746;28;20375;-70
2022/09/22 04:29:05;;;;;;;3.58;2.22;;;5.20;99.90;;;;;;5006723;28;20034;-70
2022/09/22 04:31:30;;;;;;;4.55;2.15;;;5.20;99.90;;;;;;5001068;28;20046;-70
2022/09/22 04:33:56;;;;;;;5.28;2.83;;;5.20;99.90;;;;;;5005165;28;20057;-70
2022/09/22 04:36:21;;;;;;;4.80;3.90;;;5.20;99.90;;;;;;5005255;28;20039;-70
2022/09/22 04:38:47;;;;;;;5.38;2.53;;;5.20;99.90;;;;;;5003561;28;20042;-70
2022/09/22 04:41:13;;;;;;;3.35;2.45;;;5.20;99.90;;;;;;5001503;28;20137;-68
2022/09/22 04:43:39;;;;;;;4.88;2.72;;;5.20;99.90;;;;;;5004233;28;20139;-68
2022/09/22 04:46:05;;;;;;;2.72;2.15;;;5.20;99.90;;;;;;5004066;28;20034;-67
2022/09/22 04:48:30;;;;;;;4.82;2.55;;;5.20;99.90;;;;;;5005879;28;21680;-69
2022/09/22 04:50:56;;;;;;;2.78;2.00;;;5.20;99.90;;;;;;5002760;28;20042;-69
2022/09/22 04:53:22;;;;;;;5.07;2.38;;;5.20;99.90;;;;;;5003485;28;20046;-68
2022/09/22 04:55:50;;;;;;;6.05;4.32;;;5.20;99.90;;;;;;5003516;28;20146;-68
2022/09/22 04:58:16;;;;;;;5.43;3.35;;;5.20;99.90;;;;;;4991077;28;20052;-68
2022/09/22 05:00:42;;;;;;;6.38;3.25;;;5.20;99.90;;;;;;5004748;28;20137;-70
2022/09/22 05:03:09;;;;;;;8.75;3.05;;;5.20;99.90;;;;;;5006183;28;20043;-69
2022/09/22 05:05:35;;;;;;;5.50;3.13;;;5.20;99.90;;;;;;5003244;28;20363;-69
2022/09/22 05:08:01;;;;;;;5.82;3.38;;;5.10;99.90;;;;;;5005601;28;20116;-69
2022/09/22 05:10:31;;;;;;;5.63;3.15;;;5.10;99.90;;;;;;5005637;28;20034;-69
2022/09/22 05:12:57;;;;;;;4.35;3.38;;;5.10;99.90;;;;;;5002989;28;20139;-69
2022/09/22 05:15:24;;;;;;;5.20;3.28;;;5.10;99.90;;;;;;5000254;28;20081;-69
2022/09/22 05:17:52;;;;;;;4.53;2.85;;;5.10;99.90;;;;;;5015857;28;20065;-70
2022/09/22 05:20:19;;;;;;;4.05;3.22;;;5.10;99.90;;;;;;5003169;28;20111;-69
2022/09/22 05:22:46;;;;;;;6.55;3.53;;;5.10;99.90;;;;;;5006173;28;20116;-69
2022/09/22 05:25:14;;;;;;;7.65;3.72;;;5.10;99.90;;;;;;5002606;28;20042;-69
2022/09/22 05:27:48;;;;;;;4.47;3.90;;;5.10;99.90;;;;;;5002367;28;20050;-69
2022/09/22 05:30:14;;;;;;;4.82;3.40;;;5.10;99.90;;;;;;5005564;28;20120;-69
2022/09/22 05:32:44;;;;;;;7.05;4.10;;;5.10;99.90;;;;;;5001356;28;20486;-69
2022/09/22 05:35:14;;;;;;;6.03;3.67;;;5.10;99.90;;;;;;5008145;28;20041;-69
2022/09/22 05:37:47;;;;;;;5.32;3.53;;;5.10;99.90;;;;;;5002767;28;20054;-69
2022/09/22 05:40:14;;;;;;;8.73;4.43;;;5.20;99.90;;;;;;5002506;28;20042;-68
2022/09/22 05:42:47;;;;;;;8.45;4.22;;;5.10;99.90;;;;;;5000065;28;20056;-68
2022/09/22 05:45:15;;;;;;;4.40;4.00;;;5.10;99.90;;;;;;5001735;28;20038;-68
2022/09/22 05:47:41;;;;;;;6.53;4.15;;;5.20;99.90;;;;;;5004563;28;20382;-69
2022/09/22 05:50:08;;;;;;;6.57;4.13;;;5.20;99.90;;;;;;5003126;28;20042;-69
2022/09/22 05:52:34;;;;;;;9.18;4.63;;;5.20;99.90;;;;;;5002194;28;20410;-69
2022/09/22 05:54:59;;;;;;;7.53;5.22;;;5.30;99.90;;;;;;4998957;28;20046;-69
2022/09/22 05:57:26;;;;;;;6.07;5.07;;;5.30;99.90;;;;;;5009761;28;20415;-69
2022/09/22 05:59:55;;;;;;;5.55;5.00;;;5.30;99.90;;;;;;4998827;28;20073;-69
2022/09/22 06:02:24;;;;;;;6.18;4.60;;;5.40;99.90;;;;;;5001546;28;20053;-69
2022/09/22 06:04:51;;;;;;;8.45;5.63;;;5.50;99.90;;;;;;5000796;28;20065;-69
2022/09/22 06:07:19;;;;;;;9.80;5.70;;;5.50;99.90;;;;;;5000413;28;20065;-69
2022/09/22 06:09:46;;;;;;;7.43;6.38;;;5.60;99.90;;;;;;5000649;28;20105;-69
2022/09/22 06:12:11;;;;;;;8.57;6.88;;;5.60;99.90;;;;;;5003568;28;20049;-69
2022/09/22 06:14:37;;;;;;;9.75;6.78;;;5.70;99.90;;;;;;4995243;28;20049;-69
2022/09/22 06:17:03;;;;;;;9.50;6.93;;;5.80;99.90;;;;;;5000487;28;20323;-68
2022/09/22 06:19:29;;;;;;;8.43;6.68;;;5.80;99.90;;;;;;5001580;28;20101;-69
2022/09/22 06:21:55;;;;;;;9.48;8.40;;;6.00;99.90;;;;;;5005005;28;20060;-69
2022/09/22 06:24:22;;;;;;;11.25;7.97;;;6.10;99.90;;;;;;5003913;28;20489;-68
2022/09/22 06:26:49;;;;;;;10.43;8.98;;;6.20;99.90;;;;;;4985268;28;20060;-69
2022/09/22 06:29:15;;;;;;;10.80;9.70;;;6.30;99.90;;;;;;5008117;28;20069;-69
2022/09/22 06:31:41;;;;;;;12.25;10.85;;;6.40;99.90;;;;;;4999724;28;20477;-68
2022/09/22 06:34:07;;;;;;;17.30;12.63;;;6.60;99.90;;;;;;5005679;28;20095;-68
2022/09/22 06:36:33;;;;;;;17.92;12.23;;;6.70;99.90;;;;;;5001372;28;20050;-69
2022/09/22 06:39:00;;;;;;;15.02;11.73;;;6.90;99.90;;;;;;5007327;28;20049;-69
2022/09/22 06:41:27;;;;;;;15.90;13.02;;;7.00;99.90;;;;;;4997317;28;20042;-69
2022/09/22 06:43:56;;;;;;;16.48;12.82;;;7.10;99.90;;;;;;5006252;28;20050;-69
2022/09/22 06:46:24;;;;;;;14.23;12.73;;;7.30;99.90;;;;;;5000337;28;20046;-69
2022/09/22 06:48:52;;;;;;;15.35;13.18;;;7.40;99.90;;;;;;5003428;28;20405;-69
2022/09/22 06:51:18;;;;;;;14.98;13.00;;;7.60;99.90;;;;;;5006295;28;20042;-69
2022/09/22 06:53:46;;;;;;;14.65;11.50;;;7.70;99.90;;;;;;5005563;28;20049;-69
2022/09/22 06:56:12;;;;;;;13.52;11.63;;;7.90;99.90;;;;;;5004667;28;20078;-69
2022/09/22 06:58:38;;;;;;;14.18;12.07;;;8.00;99.90;;;;;;4998495;28;20038;-69
2022/09/22 07:01:05;;;;;;;13.82;11.57;;;8.20;99.90;;;;;;5002435;28;20484;-69
2022/09/22 07:03:32;;;;;;;13.63;11.88;;;8.50;99.90;;;;;;5008569;28;20049;-69
2022/09/22 07:06:01;;;;;;;13.23;11.80;;;8.70;99.90;;;;;;5005666;28;20548;-68
2022/09/22 07:08:29;;;;;;;13.73;12.25;;;8.90;99.90;;;;;;5011018;28;20051;-68
2022/09/22 07:10:58;;;;;;;13.43;12.02;;;9.20;99.90;;;;;;5005457;28;20069;-67
2022/09/22 07:13:30;;;;;;;11.75;9.70;;;9.40;99.90;;;;;;5005814;28;20045;-67
2022/09/22 07:16:14;;;;;;;13.77;11.07;;;9.70;99.90;;;;;;5001288;28;20496;-66
2022/09/22 07:18:43;;;;;;;11.75;10.23;;;10.20;99.90;;;;;;5003537;28;20113;-67
2022/09/22 07:21:11;;;;;;;12.45;10.50;;;10.90;99.90;;;;;;5003505;28;20030;-67
2022/09/22 07:23:37;;;;;;;11.32;10.20;;;11.20;99.90;;;;;;4998716;28;20146;-67
2022/09/22 07:26:05;;;;;;;12.65;10.18;;;11.50;99.90;;;;;;5005055;28;20060;-68
2022/09/22 07:28:34;;;;;;;11.75;10.55;;;11.70;99.90;;;;;;5007132;28;20236;-69
2022/09/22 07:31:05;;;;;;;10.45;9.35;;;12.30;99.90;;;;;;5003196;28;20104;-68
2022/09/22 07:33:35;;;;;;;9.32;8.40;;;13.10;99.90;;;;;;5007402;28;20367;-68
2022/09/22 07:36:01;;;;;;;11.75;9.13;;;14.20;99.90;;;;;;5002923;28;20104;-68
2022/09/22 07:38:32;;;;;;;12.43;9.13;;;15.00;99.90;;;;;;5000732;28;20570;-68
2022/09/22 07:40:59;;;;;;;11.60;10.48;;;15.80;99.90;;;;;;5001551;28;20051;-68
2022/09/22 07:43:27;;;;;;;12.20;10.07;;;16.40;99.90;;;;;;5010143;28;20069;-68
2022/09/22 07:45:56;;;;;;;9.73;8.40;;;17.00;99.90;;;;;;5004166;28;20129;-68
2022/09/22 07:48:36;;;;;;;8.73;7.47;;;17.30;99.90;;;;;;5001345;28;20050;-67
2022/09/22 07:51:15;;;;;;;9.55;7.78;;;17.20;99.90;;;;;;5004891;28;20105;-68
2022/09/22 07:53:41;;;;;;;8.80;6.63;;;16.90;99.90;;;;;;5016059;28;20414;-68
2022/09/22 07:56:12;;;;;;;10.75;7.07;;;16.70;99.90;;;;;;5005444;28;20107;-68
2022/09/22 07:58:46;;;;;;;8.52;6.70;;;16.40;99.90;;;;;;5006433;28;20046;-68
2022/09/22 08:01:21;;;;;;;10.02;6.50;;;16.30;99.90;;;;;;5006116;28;20045;-68
2022/09/22 08:03:53;;;;;;;8.32;5.70;;;16.20;99.90;;;;;;5003434;28;20409;-68
2022/09/22 08:06:26;;;;;;;11.52;6.20;;;16.50;99.90;;;;;;5002138;28;20121;-69
2022/09/22 08:09:03;;;;;;;6.97;5.15;;;17.20;99.90;;;;;;5001425;28;20054;-69
2022/09/22 08:11:37;;;;;;;13.82;5.60;;;18.10;99.90;;;;;;5003409;28;20042;-69
2022/09/22 08:14:09;;;;;;;7.27;4.80;;;19.00;99.90;;;;;;5001817;28;20128;-69
2022/09/22 08:16:38;;;;;;;10.50;4.90;;;19.60;99.90;;;;;;5004468;28;20048;-68
2022/09/22 08:19:12;;;;;;;12.65;5.78;;;20.10;99.90;;;;;;5007093;28;20466;-69
2022/09/22 08:21:49;;;;;;;4.45;4.03;;;20.70;99.00;;;;;;5001798;28;20035;-68
2022/09/22 08:24:20;;;;;;;5.78;5.10;;;21.20;94.20;;;;;;5001064;28;20149;-69
2022/09/22 08:26:46;;;;;;;7.35;4.32;;;21.70;93.70;;;;;;5001878;28;20116;-69
2022/09/22 08:29:12;;;;;;;6.60;3.75;;;22.10;92.00;;;;;;5001706;28;20055;-69
2022/09/22 08:31:40;;;;;;;5.75;3.50;;;22.60;90.60;;;;;;5002631;28;20571;-69
2022/09/22 08:34:07;;;;;;;6.32;3.55;;;22.70;87.80;;;;;;5005283;28;20053;-69
2022/09/22 08:36:33;;;;;;;5.55;3.33;;;22.90;84.10;;;;;;5000730;28;20038;-69
2022/09/22 08:39:01;;;;;;;5.47;3.42;;;23.20;80.00;;;;;;5000714;28;20068;-69
2022/09/22 08:41:26;;;;;;;7.05;3.03;;;23.50;78.60;;;;;;5002287;28;20401;-69
2022/09/22 08:44:10;;;;;;;5.90;3.10;;;23.70;78.10;;;;;;5002641;28;20057;-69
2022/09/22 08:46:44;;;;;;;5.07;3.58;;;23.90;72.30;;;;;;5001776;28;20136;-68
2022/09/22 08:52:37;;;;;;;6.75;3.35;;;24.40;70.90;;;;;;5005208;28;20046;-69
2022/09/22 08:55:08;;;;;;;6.25;2.83;;;24.60;69.40;;;;;;4996265;28;20053;-69
2022/09/22 08:58:06;;;;;;;6.45;2.80;;;24.40;69.10;;;;;;5003119;28;20482;-68
2022/09/22 09:00:47;;;;;;;6.13;2.63;;;24.30;64.40;;;;;;5001963;28;20046;-68
2022/09/22 09:03:47;;;;;;;4.45;2.78;;;24.50;67.20;;;;;;5006042;28;20054;-68
2022/09/22 09:06:57;;;;;;;9.05;3.40;;;24.70;65.00;;;;;;5002431;28;20485;-68
2022/09/22 09:09:28;;;;;;;6.00;3.03;;;25.10;66.60;;;;;;4966025;28;20797;-68
2022/09/22 09:12:11;;;;;;;6.30;3.08;;;25.20;66.80;;;;;;4964355;28;20122;-68
2022/09/22 09:14:50;;;;;;;4.45;2.88;;;25.20;63.00;;;;;;4990188;28;20080;-68
2022/09/22 09:17:29;;;;;;;5.55;2.72;;;25.20;62.90;;;;;;4999982;28;20406;-68
2022/09/22 09:20:15;;;;;;;4.90;2.10;;;25.50;60.60;;;;;;5003642;28;20145;-68
2022/09/22 09:22:49;;;;;;;6.38;2.15;;;25.50;61.50;;;;;;5003361;28;20069;-68
2022/09/22 09:25:22;;;;;;;5.22;1.95;;;25.90;62.10;;;;;;5003540;28;20034;-68
2022/09/22 09:27:53;;;;;;;5.28;2.13;;;26.10;60.30;;;;;;5003967;28;20521;-68
2022/09/22 09:30:20;;;;;;;6.88;2.25;;;26.40;60.30;;;;;;5018100;28;20472;-69
2022/09/22 09:32:55;;;;;;;4.00;1.60;;;26.50;57.60;;;;;;5001297;28;20494;-68
2022/09/22 09:35:26;;;;;;;4.47;1.63;;;26.30;56.10;;;;;;5001427;28;20189;-68
2022/09/22 09:37:58;;;;;;;2.88;1.40;;;26.20;56.30;;;;;;5003961;28;20046;-69
2022/09/22 09:40:24;;;;;;;4.65;1.60;;;26.20;56.30;;;;;;4999046;28;20202;-69
2022/09/22 09:42:57;;;;;;;4.93;1.60;;;26.30;56.00;;;;;;4996965;28;20046;-69
2022/09/22 09:45:30;;;;;;;4.68;1.60;;;26.50;54.90;;;;;;5000330;28;20081;-67
2022/09/22 09:48:09;;;;;;;4.57;1.42;;;26.80;55.50;;;;;;4998855;28;20050;-67
2022/09/22 09:50:36;;;;;;;3.63;1.00;;;26.80;53.80;;;;;;5016314;28;20058;-67
2022/09/22 09:53:02;;;;;;;3.63;1.17;;;26.90;54.60;;;;;;5003605;28;20072;-67
2022/09/22 09:55:28;;;;;;;3.58;1.42;;;26.90;53.30;;;;;;5002238;28;20167;-67
2022/09/22 09:58:06;;;;;;;3.58;1.45;;;26.80;52.30;;;;;;5000621;28;20096;-68
2022/09/22 10:00:34;;;;;;;4.25;1.30;;;26.90;52.60;;;;;;5001971;28;21117;-68
2022/09/22 10:03:26;;;;;;;3.70;1.23;;;26.90;51.30;;;;;;5001929;28;20444;-70
2022/09/22 10:06:05;;;;;;;3.85;1.35;;;26.90;50.40;;;;;;5009586;28;20536;-70
2022/09/22 10:08:35;;;;;;;2.80;1.20;;;26.80;51.90;;;;;;5005822;28;20113;-70
2022/09/22 10:11:03;;;;;;;6.88;1.17;;;26.60;51.40;;;;;;5008590;28;20045;-70
2022/09/22 10:13:32;;;;;;;4.45;1.38;;;26.50;53.20;;;;;;5004210;28;20038;-70
2022/09/22 10:16:17;;;;;;;2.55;1.33;;;26.50;52.40;;;;;;5007063;28;20492;-70
2022/09/22 10:18:43;;;;;;;4.43;1.58;;;26.50;51.50;;;;;;5006565;28;20039;-70
2022/09/22 10:21:22;;;;;;;3.85;1.05;;;26.60;51.10;;;;;;5009465;28;20061;-70
2022/09/22 10:23:53;;;;;;;3.88;1.23;;;26.60;50.30;;;;;;5009328;28;20044;-70
2022/09/22 10:26:28;;;;;;;4.10;1.33;;;26.50;50.00;;;;;;5009996;28;20248;-70
2022/09/22 10:29:19;;;;;;;6.38;1.70;;;26.40;49.40;;;;;;5001831;28;20610;-70
2022/09/22 10:32:10;;;;;;;5.93;1.20;;;26.20;52.20;;;;;;5002520;28;20417;-71
2022/09/22 10:34:42;;;;;;;3.55;1.40;;;26.40;50.70;;;;;;5002225;28;20046;-71
2022/09/22 10:37:10;;;;;;;6.95;3.38;;;26.60;50.60;;;;;;5007572;28;20072;-70
2022/09/22 10:39:49;;;;;;;3.10;1.58;;;26.70;50.60;;;;;;5004733;28;20045;-70
2022/09/22 10:42:26;;;;;;;3.45;1.38;;;26.70;49.50;;;;;;5003726;28;20046;-71
2022/09/22 10:44:57;;;;;;;4.68;1.73;;;26.60;50.40;;;;;;5004643;28;20792;-70
2022/09/22 10:47:29;;;;;;;3.92;1.63;;;26.40;50.00;;;;;;5008275;28;20576;-70
2022/09/22 10:50:27;;;;;;;4.70;1.40;;;26.20;50.80;;;;;;5006980;28;20041;-71
2022/09/22 10:53:16;;;;;;;3.83;1.50;;;26.00;51.50;;;;;;5003315;28;20525;-70
2022/09/22 10:55:54;;;;;;;5.20;1.75;;;26.00;48.20;;;;;;5000194;28;20445;-70
2022/09/22 10:58:46;;;;;;;5.18;1.80;;;25.10;50.80;;;;;;5008760;28;20497;-68
2022/09/22 11:01:46;;;;;;;4.80;1.70;;;25.00;52.90;;;;;;5004111;28;20037;-68
2022/09/22 11:04:30;;;;;;;6.60;3.05;;;25.30;52.90;;;;;;5006052;28;20046;-69
2022/09/22 11:13:30;;;;;;;5.00;3.13;;;26.00;50.20;;;;;;5006820;28;20048;-69
2022/09/22 11:16:01;;;;;;;6.57;2.60;;;26.10;49.40;;;;;;5002979;28;20450;-69
2022/09/22 11:18:57;;;;;;;4.82;2.45;;;26.10;49.30;;;;;;5003640;28;20044;-69
2022/09/22 11:21:34;;;;;;;5.57;2.67;;;26.30;47.20;;;;;;5006210;28;20069;-69
2022/09/22 11:24:30;;;;;;;5.82;3.20;;;25.50;47.40;;;;;;5004904;28;20053;-69
2022/09/22 11:27:00;;;;;;;5.03;2.83;;;24.50;49.40;;;;;;5006649;28;20133;-69
2022/09/22 11:29:40;;;;;;;6.20;3.30;;;24.20;49.30;;;;;;5003831;28;20038;-68
2022/09/22 11:32:24;;;;;;;7.05;2.92;;;23.50;49.90;;;;;;5000851;28;20056;-70
2022/09/22 11:35:25;;;;;;;4.78;2.47;;;22.90;52.50;;;;;;5004234;28;20046;-70
2022/09/22 11:38:11;;;;;;;8.57;3.53;;;23.80;52.20;;;;;;5006122;28;20802;-70
2022/09/22 11:41:00;;;;;;;6.88;3.58;;;24.60;50.20;;;;;;4997770;28;20405;-70
2022/09/22 11:43:52;;;;;;;7.30;2.85;;;24.10;49.90;;;;;;5002329;28;20049;-70
2022/09/22 11:46:47;;;;;;;7.93;3.35;;;23.40;50.90;;;;;;5000724;28;20049;-69
2022/09/22 11:49:25;;;;;;;9.25;3.75;;;23.10;51.50;;;;;;5007540;28;20053;-69
2022/09/22 11:52:10;;;;;;;6.70;3.42;;;23.00;53.30;;;;;;5019142;28;20046;-70
2022/09/22 11:55:01;;;;;;;5.22;3.10;;;23.70;52.10;;;;;;5003390;28;20570;-70
2022/09/22 11:57:33;;;;;;;6.30;3.08;;;24.50;49.90;;;;;;5005344;28;20056;-70
2022/09/22 12:00:02;;;;;;;6.68;2.88;;;25.00;50.30;;;;;;5002718;28;20050;-69
2022/09/22 12:02:30;;;;;;;5.03;2.55;;;25.40;49.60;;;;;;5004005;28;20042;-70
2022/09/22 12:05:05;;;;;;;4.18;2.47;;;26.00;51.20;;;;;;5005003;28;20034;-70
2022/09/22 12:07:45;;;;;;;5.93;2.38;;;26.60;49.50;;;;;;5005500;28;20049;-70
2022/09/22 12:10:21;;;;;;;6.53;2.70;;;27.20;48.60;;;;;;5004738;28;20030;-70
2022/09/22 12:12:50;;;;;;;4.50;2.53;;;27.50;47.50;;;;;;5002340;28;20394;-70
2022/09/22 12:15:33;;;;;;;4.63;2.63;;;27.80;47.20;;;;;;5005508;28;20049;-69
2022/09/22 12:18:31;;;;;;;5.13;2.25;;;28.10;45.20;;;;;;5021927;28;20068;-69
2022/09/22 12:21:18;;;;;;;4.63;2.20;;;28.10;44.10;;;;;;4989577;28;20045;-69
2022/09/22 12:23:48;;;;;;;6.57;2.38;;;26.60;45.10;;;;;;5006131;28;20046;-69
2022/09/22 12:26:30;;;;;;;5.15;2.25;;;25.20;46.80;;;;;;5007259;28;20080;-69
2022/09/22 12:28:57;;;;;;;5.18;2.20;;;24.00;48.60;;;;;;4999433;28;20065;-69
2022/09/22 12:31:39;;;;;;;6.05;2.28;;;23.20;50.20;;;;;;5007484;28;20034;-69
2022/09/22 12:34:18;;;;;;;6.07;2.47;;;22.70;52.30;;;;;;4999732;28;20112;-69
2022/09/22 12:36:46;;;;;;;9.13;6.40;;;23.30;52.00;;;;;;4997889;28;20049;-69
2022/09/22 12:39:18;;;;;;;11.15;7.75;;;24.10;50.10;;;;;;5007719;28;20033;-69
2022/09/22 12:42:04;;;;;;;6.07;2.65;;;24.50;49.40;;;;;;4999523;28;20398;-69
2022/09/22 12:44:35;;;;;;;4.78;2.00;;;25.20;49.10;;;;;;5000866;28;20382;-69
2022/09/22 12:47:23;;;;;;;6.00;1.95;;;25.50;48.30;;;;;;5004055;28;20062;-69
2022/09/22 12:49:59;;;;;;;5.53;1.60;;;26.20;48.10;;;;;;4999627;28;20046;-69
2022/09/22 12:52:40;;;;;;;4.20;1.80;;;26.70;47.10;;;;;;5002248;28;20088;-69
2022/09/22 12:55:27;;;;;;;5.00;2.10;;;27.20;45.80;;;;;;5005882;28;20045;-69
2022/09/22 12:58:01;;;;;;;3.97;1.85;;;27.20;45.70;;;;;;5002345;28;20111;-68
2022/09/22 13:00:38;;;;;;;6.05;1.90;;;27.40;46.00;;;;;;5015101;28;20088;-69
2022/09/22 13:03:26;;;;;;;6.30;1.73;;;27.70;46.10;;;;;;5008123;28;20050;-69
2022/09/22 13:05:56;;;;;;;5.72;1.90;;;28.00;45.20;;;;;;5005736;28;20155;-69
2022/09/22 13:08:47;;;;;;;7.38;1.90;;;27.60;44.00;;;;;;5003714;28;20176;-69
2022/09/22 13:11:13;;;;;;;3.53;1.98;;;26.80;43.90;;;;;;5003833;28;20471;-69
2022/09/22 13:13:41;;;;;;;4.60;2.33;;;26.80;45.10;;;;;;4996663;28;20037;-70
2022/09/22 13:16:13;;;;;;;6.22;2.28;;;26.90;44.10;;;;;;4996946;28;20057;-70
2022/09/22 13:18:40;;;;;;;5.40;2.17;;;26.70;46.30;;;;;;4992302;28;20037;-68
2022/09/22 13:21:11;;;;;;;5.03;2.10;;;26.00;45.40;;;;;;4997090;28;20050;-69
2022/09/22 13:23:57;;;;;;;3.80;2.30;;;25.50;45.90;;;;;;5010853;28;20042;-69
2022/09/22 13:26:25;;;;;;;5.47;2.28;;;25.00;45.10;;;;;;5000600;28;20096;-69
2022/09/22 13:29:16;;;;;;;5.22;2.13;;;24.60;47.00;;;;;;4998652;28;20530;-69
2022/09/22 13:31:54;;;;;;;6.70;2.30;;;24.00;47.10;;;;;;4991184;28;20088;-69